DW0269 Weather Reports


Display with metric or nautical units.
time (UTC)temp
F
wind
direction
speed
MPH
gust
MPH
rain 1hr
in
rain 24hr
in
rain mn
in
humidity
%
barometer
mb
20260503001246 72 27 8.0 13.0 0.00 0.00 0.00 81 947.6
20260503000745 72 47 5.0 13.0 0.00 0.00 0.00 84 947.7
20260503000243 72 41 7.0 13.0 0.00 0.00 0.00 83 947.9
20260502235742 71 47 6.0 13.0 0.00 0.00 0.00 86 947.7
20260502235242 71 42 7.0 13.0 0.00 0.00 0.00 87 947.7
20260502234740 71 34 6.0 13.0 0.00 0.00 0.00 86 947.9
20260502234240 71 30 5.0 13.0 0.00 0.00 0.00 87 948.1
20260502233739 71 35 7.0 14.0 0.00 0.00 0.00 86 948.1
20260502233238 71 37 8.0 14.0 0.00 0.00 0.00 84 948.3
20260502232221 73 43 5.0 13.0 0.00 0.00 0.00 85 948.1
20260502231720 72 44 6.0 13.0 0.00 0.00 0.00 87 948.1
20260502231218 72 40 6.0 13.0 0.00 0.00 0.00 85 948.5
20260502230202 72 38 7.0 13.0 0.00 0.00 0.00 85 948.4
20260502225701 72 46 5.0 13.0 0.00 0.00 0.00 87 948.1
20260502225200 72 46 6.0 13.0 0.00 0.00 0.00 85 948.7
20260502224658 72 43 5.0 14.0 0.00 0.00 0.00 87 948.6
20260502224158 71 47 7.0 14.0 0.00 0.00 0.00 87 948.4
20260502223657 71 40 6.0 14.0 0.00 0.00 0.00 88 948.9
20260502223155 71 50 7.0 14.0 0.00 0.00 0.00 87 948.9
20260502222138 71 51 7.0 14.0 0.00 0.00 0.00 88 948.4
20260502221637 70 40 6.0 14.0 0.00 0.00 0.00 89 948.7
20260502221137 71 44 6.0 14.0 0.00 0.00 0.00 89 948.9
20260502220636 70 41 8.0 13.0 0.00 0.00 0.00 88 948.9
20260502214547 70 42 8.0 13.0 0.00 0.00 0.00 88 949.2
20260502214046 70 51 7.0 12.0 0.00 0.00 0.00 89 949.0
20260502213545 70 47 7.0 12.0 0.00 0.00 0.00 89 949.2
20260502213044 70 40 6.0 12.0 0.00 0.00 0.00 90 949.4
20260502212543 71 52 4.0 12.0 0.00 0.00 0.00 92 949.7
20260502212042 70 50 4.0 12.0 0.00 0.00 0.00 92 949.5
20260502211541 71 49 4.0 11.0 0.00 0.00 0.00 91 949.5
20260502211040 71 39 7.0 11.0 0.00 0.00 0.00 89 949.8
20260502210539 71 66 3.0 11.0 0.00 0.00 0.00 92 949.8
20260502210038 70 84 5.0 15.0 0.00 0.00 0.00 90 949.6
20260502205537 70 87 7.0 15.0 0.00 0.00 0.00 88 949.6
20260502204520 69 59 6.0 13.0 0.00 0.00 0.00 88 949.7
20260502204019 69 62 5.0 13.0 0.00 0.00 0.00 88 949.5
20260502203518 69 56 5.0 13.0 0.00 0.00 0.00 89 949.8
20260502203017 69 51 5.0 13.0 0.00 0.00 0.00 89 949.6
20260502202000 68 45 6.0 14.0 0.00 0.00 0.00 91 949.3
20260502200427 68 52 7.0 15.0 0.00 0.00 0.00 91 949.7
20260502194854 67 43 6.0 15.0 0.00 0.00 0.00 93 949.3
20260502194353 67 53 6.0 16.0 0.00 0.00 0.00 93 949.6
20260502193852 67 56 6.0 16.0 0.00 0.00 0.00 92 949.4
20260502193351 67 56 7.0 16.0 0.00 0.00 0.00 92 949.5
20260502192850 68 54 7.0 14.0 0.00 0.00 0.00 92 949.5
20260502192349 68 50 4.0 14.0 0.00 0.00 0.00 94 949.5
20260502191332 67 44 6.0 14.0 0.00 0.00 0.00 94 949.4
20260502190831 67 45 7.0 15.0 0.00 0.00 0.00 93 949.2
20260502190330 67 46 7.0 15.0 0.00 0.00 0.00 94 949.5
20260502184757 67 55 5.0 13.0 0.00 0.00 0.00 94 949.3
20260502184256 66 52 6.0 13.0 0.00 0.00 0.00 94 949.5
20260502183755 66 44 5.0 13.0 0.00 0.00 0.00 94 949.3
20260502182237 65 48 5.0 13.0 0.00 0.00 0.00 93 949.2
20260502181736 65 48 6.0 13.0 0.00 0.00 0.00 94 949.2
20260502181235 65 48 4.0 13.0 0.00 0.00 0.00 93 949.2
20260502180734 65 49 5.0 13.0 0.00 0.00 0.00 93 949.1
20260502170116 62 49 5.0 16.0 0.00 0.00 0.00 96 948.1
20260502164054 62 52 5.0 13.0 0.00 0.00 0.00 97 948.5
20260502163037 62 56 5.0 14.0 0.00 0.00 0.00 97 948.5
20260502162536 62 56 5.0 14.0 0.00 0.00 0.00 97 948.5
20260502162035 62 52 5.0 13.0 0.00 0.00 0.00 97 948.0
20260502161534 62 49 4.0 15.0 0.00 0.00 0.00 97 948.3
20260502160517 61 43 6.0 13.0 0.00 0.00 0.00 97 948.0
20260502151953 61 45 7.0 15.0 0.00 0.00 0.00 97 947.8
20260502151452 61 37 6.0 15.0 0.00 0.00 0.00 97 948.0
20260502150951 61 59 5.0 12.0 0.00 0.00 0.00 97 948.2
20260502150450 61 51 4.0 12.0 0.00 0.00 0.00 97 948.1
20260502130326 61 60 8.0 19.0 0.00 0.00 0.00 96 948.5
20260502123250 61 55 4.0 13.0 0.00 0.00 0.00 97 948.7
20260502122749 61 50 5.0 13.0 0.00 0.00 0.00 96 948.8
20260502122248 61 52 4.0 13.0 0.00 0.00 0.00 97 948.9
20260502121747 61 49 4.0 13.0 0.00 0.00 0.00 96 948.6
20260502121246 61 45 5.0 13.0 0.00 0.00 0.00 96 948.6
20260502120745 61 44 6.0 13.0 0.00 0.00 0.00 96 948.8
20260502120244 61 43 6.0 13.0 0.00 0.00 0.00 96 948.6
20260502115743 61 42 6.0 13.0 0.00 0.00 0.00 96 948.8
20260502115242 61 48 5.0 13.0 0.00 0.00 0.00 97 948.7
20260502114741 61 39 6.0 13.0 0.00 0.00 0.00 97 948.6
20260502114240 61 40 5.0 13.0 0.00 0.00 0.00 96 948.8
20260502113739 61 48 5.0 13.0 0.00 0.00 0.00 96 948.9
20260502113238 61 49 4.0 13.0 0.00 0.00 0.00 96 949.1
20260502112737 61 52 5.0 13.0 0.00 0.00 0.00 97 949.1
20260502112236 61 52 4.0 13.0 0.00 0.00 0.00 96 949.0
20260502111219 62 48 5.0 13.0 0.00 0.00 0.00 96 949.4
20260502110718 62 44 6.0 13.0 0.00 0.00 0.00 96 949.3
20260502110218 62 38 8.0 13.0 0.00 0.00 0.00 96 949.2
20260502105716 62 41 5.0 13.0 0.00 0.00 0.00 96 949.3
20260502105215 62 41 6.0 13.0 0.00 0.00 0.00 97 949.3
20260502104714 62 44 6.0 13.0 0.00 0.00 0.00 97 949.7
20260502104213 62 56 5.0 13.0 0.00 0.00 0.00 97 949.5
20260502103712 62 49 5.0 13.0 0.00 0.00 0.00 96 949.6
20260502103211 62 45 5.0 13.0 0.00 0.00 0.00 97 949.6
20260502102710 62 46 6.0 14.0 0.00 0.00 0.00 96 949.6
20260502102209 62 56 6.0 14.0 0.00 0.00 0.00 96 949.5
20260502101152 62 49 5.0 13.0 0.00 0.00 0.00 96 949.6
20260502100651 62 53 5.0 13.0 0.00 0.00 0.00 96 949.7
20260502100151 62 47 5.0 15.0 0.00 0.00 0.00 96 949.8
20260502091125 62 56 5.0 15.0 0.00 0.00 0.00 95 949.9
20260502090624 62 47 6.0 15.0 0.00 0.00 0.00 95 949.9
20260502090123 62 51 6.0 16.0 0.00 0.00 0.00 95 950.1
20260502071500 62 44 5.0 15.0 0.00 0.00 0.00 96 950.2
20260502071000 62 46 6.0 15.0 0.00 0.00 0.00 96 949.9
20260502070458 62 43 6.0 13.0 0.00 0.00 0.00 96 949.9
20260502065957 62 44 4.0 13.0 0.00 0.00 0.00 96 949.9
20260502065457 62 58 6.0 12.0 0.00 0.00 0.00 96 950.0
20260502064956 62 47 4.0 12.0 0.00 0.00 0.00 96 949.8
20260502064454 62 45 5.0 13.0 0.00 0.00 0.00 96 949.9
20260502063953 62 57 5.0 13.0 0.00 0.00 0.00 96 949.7
20260502063453 62 51 4.0 13.0 0.00 0.00 0.00 96 949.9
20260502062952 62 46 6.0 13.0 0.00 0.00 0.00 96 949.6
20260502062450 62 43 6.0 14.0 0.00 0.00 0.00 95 949.5
20260502061949 62 46 4.0 14.0 0.00 0.00 0.00 96 949.4
20260502061449 62 49 4.0 14.0 0.00 0.00 0.00 96 949.7
20260502060947 62 50 6.0 14.0 0.00 0.00 0.00 96 949.5
20260502060447 62 45 5.0 14.0 0.00 0.00 0.00 96 949.5
20260502055946 62 49 4.0 14.0 0.00 0.00 0.00 96 949.5
20260502055445 62 41 5.0 14.0 0.00 0.00 0.00 96 949.1
20260502054944 62 43 5.0 14.0 0.00 0.00 0.00 95 948.9
20260502054442 62 42 6.0 14.0 0.00 0.00 0.00 95 949.1
20260502053942 62 52 6.0 14.0 0.00 0.00 0.00 95 949.1
20260502053441 62 48 5.0 14.0 0.00 0.00 0.00 96 949.0
20260502050836 62 50 7.0 15.0 0.00 0.00 0.00 95 948.7
20260502050335 62 61 8.0 15.0 0.00 0.00 0.00 95 948.2
20260502045834 62 53 7.0 14.0 0.00 0.00 0.00 95 948.2
20260502044817 62 53 8.0 15.0 0.00 0.00 0.00 95 948.2
20260502044316 62 51 7.0 15.0 0.00 0.00 0.00 95 948.2
20260502043815 62 49 8.0 20.0 0.00 0.00 0.00 96 948.1
20260502043314 62 50 7.0 20.0 0.00 0.00 0.00 96 948.1
20260502042813 62 43 9.0 16.0 0.00 0.00 0.00 95 947.9
20260502042312 62 44 10.0 20.0 0.00 0.00 0.00 95 947.9
20260502041255 63 47 7.0 18.0 0.00 0.00 0.00 95 947.7
20260502040238 63 49 9.0 18.0 0.00 0.00 0.00 96 947.8
20260502035737 63 48 9.0 18.0 0.00 0.00 0.00 95 947.6
20260502034720 63 48 7.0 15.0 0.00 0.00 0.00 95 947.8
20260502034219 63 45 7.0 15.0 0.00 0.00 0.00 95 947.6
20260502033718 63 53 8.0 15.0 0.00 0.00 0.00 94 947.5
20260502033217 63 45 8.0 16.0 0.00 0.00 0.00 94 947.6
20260502032200 65 53 8.0 16.0 0.00 0.00 0.00 94 947.9
20260502031143 65 58 8.0 16.0 0.00 0.00 0.00 94 947.3
20260502030642 65 46 8.0 15.0 0.00 0.00 0.00 94 947.2
20260502030141 64 52 6.0 20.0 0.00 0.00 0.00 94 947.2
20260502025640 64 49 9.0 20.0 0.00 0.00 0.00 93 947.3
20260502025139 65 55 9.0 19.0 0.00 0.00 0.00 93 946.9
20260502024638 65 62 9.0 19.0 0.00 0.00 0.00 94 947.1
20260502024137 65 53 8.0 16.0 0.00 0.00 0.00 95 947.2
20260502023636 65 46 9.0 16.0 0.00 0.00 0.00 94 946.9
20260502023135 65 49 9.0 15.0 0.00 0.00 0.00 93 946.7
20260502022634 65 52 9.0 16.0 0.00 0.00 0.00 95 946.8
20260502022133 65 52 8.0 16.0 0.00 0.00 0.00 94 947.0
20260502021632 65 48 8.0 20.0 0.00 0.00 0.00 94 946.8
20260502021131 65 52 8.0 20.0 0.00 0.00 0.00 92 947.0
20260502020630 66 46 9.0 18.0 0.00 0.00 0.00 94 946.9
20260502020129 65 41 9.0 19.0 0.00 0.00 0.00 93 946.9
20260502015112 66 39 11.0 20.0 0.00 0.00 0.00 93 947.1
20260502014055 66 44 8.0 19.0 0.00 0.00 0.00 93 946.7
20260502013554 66 42 9.0 19.0 0.00 0.00 0.00 93 946.9
20260502013053 66 51 10.0 18.0 0.00 0.00 0.00 93 947.2
20260502012552 66 44 9.0 18.0 0.00 0.00 0.00 93 946.8
20260502011535 66 50 10.0 19.0 0.00 0.00 0.00 92 947.0
20260502011034 67 44 9.0 19.0 0.00 0.00 0.00 93 947.1
20260502010533 67 42 10.0 18.0 0.00 0.00 0.00 93 947.5
20260502010032 67 52 8.0 18.0 0.00 0.00 0.00 93 947.2
20260502005531 67 43 10.0 18.0 0.00 0.00 0.00 93 947.3
20260502005030 67 49 7.0 23.0 0.00 0.00 0.00 94 947.3
20260502003457 67 55 8.0 19.0 0.00 0.00 0.00 94 947.6
20260502002956 67 49 7.0 15.0 0.00 0.00 0.00 93 947.5
20260502002455 67 53 8.0 21.0 0.00 0.00 0.00 93 947.7
20260502001954 67 58 6.0 21.0 0.00 0.00 0.00 95 947.7